createdAt,value
2018-07-23T00:01:55.071Z,26.27
2018-07-23T00:04:23.674Z,21.45
2018-07-23T00:06:53.260Z,20.20
2018-07-23T00:09:21.875Z,23.22
2018-07-23T00:11:50.501Z,16.33
2018-07-23T00:14:19.206Z,23.95
2018-07-23T00:16:47.826Z,28.90
2018-07-23T00:19:16.631Z,27.47
2018-07-23T00:21:45.322Z,31.25
2018-07-23T00:24:14.191Z,23.12
2018-07-23T00:26:42.812Z,26.17
2018-07-23T00:29:11.463Z,41.70
2018-07-23T00:31:40.230Z,30.62
2018-07-23T00:34:08.885Z,45.75
2018-07-23T00:36:38.654Z,27.93
2018-07-23T00:39:08.373Z,29.57
2018-07-23T00:41:37.324Z,37.17
2018-07-23T00:44:06.129Z,33.18
2018-07-23T00:46:35.735Z,41.53
2018-07-23T00:49:04.330Z,25.97
2018-07-23T00:51:33.054Z,18.25
2018-07-23T00:54:02.658Z,20.67
2018-07-23T00:56:31.412Z,18.62
2018-07-23T00:59:00.117Z,23.75
2018-07-23T01:01:29.956Z,15.05
2018-07-23T01:03:59.401Z,16.67
2018-07-23T01:06:28.388Z,29.05
2018-07-23T01:08:58.091Z,20.77
2018-07-23T01:11:26.377Z,25.72
2018-07-23T01:13:54.652Z,27.37
2018-07-23T01:16:22.884Z,28.35
2018-07-23T01:18:51.575Z,35.38
2018-07-23T01:21:20.233Z,26.00
2018-07-23T01:25:57.380Z,41.35
2018-07-23T01:28:27.007Z,48.45
2018-07-23T01:30:55.664Z,50.05
2018-07-23T01:33:26.339Z,73.30
2018-07-23T01:35:57.025Z,78.87
2018-07-23T01:38:25.784Z,79.47
2018-07-23T01:40:54.068Z,81.85
2018-07-23T01:43:22.689Z,55.63
2018-07-23T01:45:51.319Z,82.35
2018-07-23T01:48:19.915Z,59.85
2018-07-23T01:50:49.212Z,80.85
2018-07-23T01:53:18.885Z,71.82
2018-07-23T01:55:48.470Z,74.40
2018-07-23T01:58:17.118Z,74.72
2018-07-23T02:00:46.815Z,72.57
2018-07-23T02:03:15.438Z,33.65
2018-07-23T02:05:44.303Z,40.30
2018-07-23T02:08:12.971Z,63.20
2018-07-23T02:10:42.759Z,74.15
2018-07-23T02:13:12.353Z,89.22
2018-07-23T02:15:40.580Z,131.27
2018-07-23T02:18:09.418Z,129.03
2018-07-23T02:20:39.170Z,157.32
2018-07-23T02:23:09.957Z,163.50
2018-07-23T02:25:38.613Z,205.65
2018-07-23T02:28:07.359Z,200.60
2018-07-23T02:30:36.000Z,260.97
2018-07-23T02:33:04.636Z,221.25
2018-07-23T02:35:33.052Z,167.60
2018-07-23T02:38:01.726Z,307.75
2018-07-23T02:40:30.564Z,158.60
2018-07-23T02:42:59.256Z,291.03
2018-07-23T02:45:28.019Z,280.73
2018-07-23T02:47:56.840Z,246.77
2018-07-23T02:50:26.226Z,230.70
2018-07-23T02:52:55.859Z,263.27
2018-07-23T02:55:24.554Z,237.23
2018-07-23T02:57:54.883Z,241.97
2018-07-23T03:00:23.505Z,225.70
2018-07-23T03:02:52.744Z,176.80
2018-07-23T03:05:21.500Z,135.00
2018-07-23T03:07:50.895Z,181.47
2018-07-23T03:10:19.670Z,122.90
2018-07-23T03:12:48.363Z,160.05
2018-07-23T03:15:17.004Z,219.30
2018-07-23T03:17:45.656Z,226.67
2018-07-23T03:20:14.345Z,273.43
2018-07-23T03:22:43.670Z,234.98
2018-07-23T03:25:12.313Z,262.55
2018-07-23T03:27:41.088Z,267.68
2018-07-23T03:30:09.861Z,319.07
2018-07-23T03:32:38.505Z,356.43
2018-07-23T03:35:08.319Z,284.75
2018-07-23T03:37:37.068Z,302.73
2018-07-23T03:40:06.807Z,279.68
2018-07-23T03:42:35.399Z,293.02
2018-07-23T03:45:04.255Z,299.80
2018-07-23T03:47:32.879Z,308.02
2018-07-23T03:50:01.492Z,314.83
2018-07-23T03:52:31.190Z,181.67
2018-07-23T03:55:00.874Z,274.85
2018-07-23T03:57:29.628Z,250.13
2018-07-23T03:59:58.278Z,256.02
2018-07-23T04:02:28.069Z,238.75
2018-07-23T04:04:57.787Z,308.47
2018-07-23T04:07:26.497Z,299.42
2018-07-23T04:09:55.191Z,159.90
2018-07-23T04:12:24.036Z,236.12
2018-07-23T04:14:53.720Z,275.07
2018-07-23T04:17:22.438Z,296.95
2018-07-23T04:19:51.081Z,282.75
2018-07-23T04:22:21.843Z,287.00
2018-07-23T04:24:51.609Z,340.90
2018-07-23T04:27:20.404Z,339.55
2018-07-23T04:29:49.322Z,363.27
2018-07-23T04:32:18.001Z,496.13
2018-07-23T04:34:46.634Z,430.43
2018-07-23T04:37:16.296Z,345.37
2018-07-23T04:39:44.918Z,338.13
2018-07-23T04:42:13.553Z,261.02
2018-07-23T04:44:42.185Z,258.82
2018-07-23T04:47:11.253Z,66.50
2018-07-23T04:49:39.859Z,120.30
2018-07-23T04:52:08.595Z,155.22
2018-07-23T04:54:38.216Z,157.17
2018-07-23T04:57:06.926Z,159.50
2018-07-23T04:59:35.540Z,159.85
2018-07-23T05:02:04.200Z,163.05
2018-07-23T05:04:34.879Z,158.22
2018-07-23T05:07:03.551Z,176.55
2018-07-23T05:09:32.227Z,176.65
2018-07-23T05:12:01.023Z,183.15
2018-07-23T05:14:29.693Z,168.85
2018-07-23T05:17:00.332Z,175.18
2018-07-23T05:19:28.980Z,163.30
2018-07-23T05:21:57.591Z,171.57
2018-07-23T05:24:27.594Z,232.85
2018-07-23T05:26:57.493Z,186.30
2018-07-23T05:29:26.141Z,238.45
2018-07-23T05:31:55.941Z,199.10
2018-07-23T05:34:24.577Z,237.90
2018-07-23T05:36:53.454Z,246.30
2018-07-23T05:39:22.136Z,249.52
2018-07-23T05:41:50.836Z,208.07
2018-07-23T05:44:19.734Z,225.47
2018-07-23T05:46:48.368Z,208.65
2018-07-23T05:49:17.164Z,205.77
2018-07-23T05:51:50.656Z,250.00
2018-07-23T05:54:19.509Z,240.60
2018-07-23T05:56:48.215Z,215.75
2018-07-23T05:59:16.819Z,147.17
2018-07-23T06:01:45.645Z,177.67
2018-07-23T06:04:15.256Z,210.78
2018-07-23T06:06:43.969Z,220.40
2018-07-23T06:09:15.217Z,171.03
2018-07-23T06:11:43.873Z,170.02
2018-07-23T06:14:12.776Z,206.38
2018-07-23T06:16:41.479Z,208.15
2018-07-23T06:19:11.174Z,178.32
2018-07-23T06:21:40.844Z,245.75
2018-07-23T06:24:09.586Z,253.50
2018-07-23T06:26:39.210Z,308.93
2018-07-23T06:29:07.850Z,307.32
2018-07-23T06:31:37.618Z,208.45
2018-07-23T06:34:06.887Z,217.20
2018-07-23T06:36:35.527Z,201.20
2018-07-23T06:39:06.323Z,210.33
2018-07-23T06:41:36.176Z,218.88
2018-07-23T06:44:04.852Z,246.40
2018-07-23T06:46:33.605Z,278.55
2018-07-23T06:49:03.846Z,280.62
2018-07-23T06:51:32.511Z,301.60
2018-07-23T06:54:01.175Z,289.00
2018-07-23T06:56:30.793Z,241.08
2018-07-23T06:59:01.492Z,225.50
2018-07-23T07:01:30.241Z,233.87
2018-07-23T07:04:03.582Z,190.38
2018-07-23T07:06:32.272Z,253.50
2018-07-23T07:09:00.886Z,273.70
2018-07-23T07:11:29.511Z,242.80
2018-07-23T07:14:00.407Z,216.38
2018-07-23T07:16:29.059Z,231.43
2018-07-23T07:18:58.692Z,260.07
2018-07-23T07:21:27.575Z,277.98
2018-07-23T07:23:56.242Z,274.85
2018-07-23T07:26:24.858Z,289.97
2018-07-23T07:28:53.690Z,313.18
2018-07-23T07:31:22.507Z,340.10
2018-07-23T07:33:51.155Z,368.55
2018-07-23T07:36:20.561Z,345.48
2018-07-23T07:38:49.330Z,282.73
2018-07-23T07:41:19.075Z,228.65
2018-07-23T07:43:47.793Z,304.60
2018-07-23T07:46:16.470Z,309.48
2018-07-23T07:48:45.247Z,248.10
2018-07-23T07:51:14.074Z,221.60
2018-07-23T07:53:42.924Z,265.30
2018-07-23T07:56:11.356Z,194.13
2018-07-23T07:58:40.021Z,160.97
2018-07-23T08:01:09.754Z,148.25
2018-07-23T08:03:40.119Z,97.82
2018-07-23T08:06:13.263Z,113.12
2018-07-23T08:08:42.027Z,137.60
2018-07-23T08:11:11.691Z,154.65
2018-07-23T08:13:41.429Z,173.83
2018-07-23T08:16:10.166Z,148.60
2018-07-23T08:18:38.878Z,121.22
2018-07-23T08:21:09.652Z,106.03
2018-07-23T08:23:38.336Z,131.72
2018-07-23T08:26:08.079Z,147.78
2018-07-23T08:28:36.758Z,142.32
2018-07-23T08:31:05.490Z,132.25
2018-07-23T08:33:34.167Z,130.65
2018-07-23T08:36:02.861Z,143.30
2018-07-23T08:38:31.612Z,132.50
2018-07-23T08:41:00.270Z,104.43
2018-07-23T08:43:29.078Z,143.10
2018-07-23T08:45:57.737Z,91.08
2018-07-23T08:48:26.389Z,89.75
2018-07-23T08:50:55.070Z,116.17
2018-07-23T08:53:23.766Z,76.97
2018-07-23T08:55:53.405Z,73.65
2018-07-23T08:58:22.064Z,71.70
2018-07-23T09:00:51.683Z,75.37
2018-07-23T09:03:20.325Z,42.30
2018-07-23T09:05:50.112Z,54.25
2018-07-23T09:08:18.769Z,42.90
2018-07-23T09:10:47.418Z,66.45
2018-07-23T09:13:18.206Z,56.47
2018-07-23T09:15:47.000Z,66.92
2018-07-23T09:18:16.658Z,54.30
2018-07-23T09:20:48.928Z,54.10
2018-07-23T09:25:59.154Z,77.53
2018-07-23T09:28:27.819Z,78.27
2018-07-23T09:30:56.730Z,62.33
2018-07-23T09:33:25.873Z,59.05
2018-07-23T09:35:54.785Z,78.50
2018-07-23T09:38:25.595Z,80.72
2018-07-23T09:40:54.318Z,77.75
2018-07-23T09:43:24.170Z,43.80
2018-07-23T09:45:52.816Z,97.53
2018-07-23T09:48:21.518Z,60.85
2018-07-23T09:50:53.269Z,34.92
2018-07-23T09:53:22.011Z,61.03
2018-07-23T09:55:50.719Z,54.05
2018-07-23T09:58:19.457Z,55.08
2018-07-23T10:00:53.286Z,35.68
2018-07-23T10:03:22.155Z,42.43
2018-07-23T10:05:50.812Z,26.57
2018-07-23T10:08:19.490Z,25.52
2018-07-23T10:10:48.214Z,20.70
2018-07-23T10:13:17.902Z,20.05
2018-07-23T10:15:46.672Z,27.37
2018-07-23T10:18:16.410Z,35.85
2018-07-23T10:20:46.101Z,40.55
2018-07-23T10:23:14.451Z,47.63
2018-07-23T10:25:43.157Z,58.98
2018-07-23T10:28:11.786Z,25.32
2018-07-23T10:30:41.583Z,24.90
2018-07-23T10:33:10.308Z,27.42
2018-07-23T10:35:39.105Z,23.62
2018-07-23T10:38:08.865Z,20.27
2018-07-23T10:40:37.571Z,44.88
2018-07-23T10:43:06.261Z,100.92
2018-07-23T10:45:35.051Z,101.80
2018-07-23T10:48:03.894Z,104.80
2018-07-23T10:50:36.681Z,176.20
2018-07-23T10:53:06.569Z,219.40
2018-07-23T10:55:35.474Z,214.68
2018-07-23T10:58:04.237Z,234.62
2018-07-23T11:00:34.008Z,476.93
2018-07-23T11:03:02.765Z,462.27
2018-07-23T11:05:31.643Z,517.77
2018-07-23T11:08:00.478Z,341.00
2018-07-23T11:10:29.208Z,409.45
2018-07-23T11:12:58.091Z,552.50
2018-07-23T11:15:26.804Z,395.60
2018-07-23T11:20:42.278Z,91.83
2018-07-23T11:23:12.645Z,20.57
2018-07-23T11:25:43.356Z,25.57
2018-07-23T11:28:12.716Z,17.05
2018-07-23T11:30:46.829Z,17.65
2018-07-23T11:33:25.605Z,16.37
2018-07-23T11:35:54.899Z,14.68
2018-07-23T11:38:25.405Z,12.37
2018-07-23T11:40:57.285Z,17.15
2018-07-23T11:43:27.735Z,21.43
2018-07-23T11:45:58.669Z,15.80
2018-07-23T11:48:29.655Z,16.10
2018-07-23T11:59:38.979Z,23.15
2018-07-23T12:02:08.333Z,19.12
2018-07-23T12:04:37.246Z,16.27
2018-07-23T12:07:07.346Z,30.72
2018-07-23T12:09:36.142Z,23.18
2018-07-23T12:12:04.887Z,50.08
2018-07-23T12:14:33.580Z,78.22
2018-07-23T12:17:02.335Z,96.72
2018-07-23T12:19:31.061Z,107.10
2018-07-23T12:21:59.770Z,115.28
2018-07-23T12:24:28.470Z,15.15
2018-07-23T12:26:57.098Z,7.30
2018-07-23T12:29:25.753Z,9.15
2018-07-23T12:31:54.422Z,9.80
2018-07-23T12:34:23.177Z,10.23
2018-07-23T12:36:51.817Z,8.58
2018-07-23T12:39:20.712Z,9.20
2018-07-23T12:41:49.502Z,11.85
2018-07-23T12:44:18.184Z,21.20
2018-07-23T12:46:46.979Z,21.47
2018-07-23T12:49:15.600Z,27.52
2018-07-23T12:51:44.296Z,12.90
2018-07-23T12:54:13.981Z,12.00
2018-07-23T12:56:42.629Z,23.83
2018-07-23T12:59:11.067Z,53.95
2018-07-23T13:01:39.823Z,54.15
2018-07-23T13:04:08.506Z,298.82
2018-07-23T13:06:37.220Z,356.00
2018-07-23T13:09:10.074Z,370.82
2018-07-23T13:11:38.764Z,129.15
2018-07-23T13:14:07.523Z,55.92
2018-07-23T13:16:36.646Z,136.22
2018-07-23T13:19:06.105Z,159.32
2018-07-23T13:21:34.776Z,143.15
2018-07-23T13:24:04.544Z,333.68
2018-07-23T13:26:33.342Z,406.52
2018-07-23T13:29:02.046Z,420.82
2018-07-23T13:31:30.732Z,377.70
2018-07-23T13:33:59.420Z,81.60
2018-07-23T13:36:28.291Z,30.52
2018-07-23T13:38:58.138Z,44.55
2018-07-23T13:41:28.364Z,356.05
2018-07-23T13:43:57.326Z,34.23
2018-07-23T13:46:30.345Z,14.13
2018-07-23T13:48:59.239Z,7.53
2018-07-23T13:51:29.139Z,9.70
2018-07-23T13:53:58.631Z,9.63
2018-07-23T13:56:27.684Z,28.37
2018-07-23T13:58:56.406Z,20.03
2018-07-23T14:01:25.261Z,5.90
2018-07-23T14:03:54.978Z,8.50
2018-07-23T14:06:23.326Z,5.92
2018-07-23T14:08:52.064Z,6.17
2018-07-23T14:11:21.747Z,418.37
2018-07-23T14:13:50.543Z,525.57
2018-07-23T14:16:19.300Z,640.98
2018-07-23T14:18:48.104Z,668.30
2018-07-23T14:21:16.725Z,306.00
2018-07-23T14:23:49.665Z,224.90
2018-07-23T14:26:18.375Z,194.30
2018-07-23T14:28:47.361Z,235.90
2018-07-23T14:31:16.136Z,306.80
2018-07-23T14:33:44.835Z,265.43
2018-07-23T14:36:13.528Z,6.87
2018-07-23T14:38:42.283Z,7.70
2018-07-23T14:41:10.902Z,8.35
2018-07-23T14:43:39.558Z,285.07
2018-07-23T14:46:08.314Z,288.20
2018-07-23T14:48:37.502Z,332.98
2018-07-23T14:51:06.439Z,237.63
2018-07-23T14:53:35.221Z,309.12
2018-07-23T14:56:03.909Z,309.37
2018-07-23T14:58:32.499Z,386.47
2018-07-23T15:01:01.144Z,7.30
2018-07-23T15:03:30.008Z,8.00
2018-07-23T15:05:58.580Z,388.25
2018-07-23T15:08:28.292Z,384.60
2018-07-23T15:10:56.939Z,387.93
2018-07-23T15:13:25.621Z,408.90
2018-07-23T15:15:54.450Z,407.20
2018-07-23T15:18:23.219Z,423.80
2018-07-23T15:20:52.037Z,400.55
2018-07-23T15:23:21.599Z,391.25
2018-07-23T15:25:50.417Z,423.02
2018-07-23T15:28:19.108Z,404.85
2018-07-23T15:30:47.893Z,425.90
2018-07-23T15:33:16.692Z,470.40
2018-07-23T15:35:46.306Z,436.40
2018-07-23T15:38:16.000Z,472.37
2018-07-23T15:40:45.778Z,501.23
2018-07-23T15:43:14.449Z,531.90
2018-07-23T15:45:43.420Z,473.32
2018-07-23T15:48:11.971Z,475.50
2018-07-23T15:50:41.719Z,9.70
2018-07-23T15:53:20.320Z,8.87
2018-07-23T15:55:51.086Z,318.45
2018-07-23T15:58:20.919Z,424.77
2018-07-23T16:00:50.584Z,434.52
2018-07-23T16:03:19.375Z,438.83
2018-07-23T16:05:48.927Z,444.35
2018-07-23T16:08:18.661Z,447.67
2018-07-23T16:10:59.473Z,425.68
2018-07-23T16:16:18.961Z,498.67
2018-07-23T16:18:47.914Z,519.30
2018-07-23T16:21:19.894Z,531.57
2018-07-23T16:23:49.743Z,498.60
2018-07-23T16:26:19.257Z,443.85
2018-07-23T16:28:48.639Z,525.15
2018-07-23T16:31:17.479Z,514.23
2018-07-23T16:33:50.257Z,493.67
2018-07-23T16:36:18.950Z,511.92
2018-07-23T16:38:48.693Z,494.97
2018-07-23T16:41:17.461Z,493.85
2018-07-23T16:43:46.490Z,495.00
2018-07-23T16:46:15.303Z,461.95
2018-07-23T16:48:52.800Z,479.77
2018-07-23T16:51:28.423Z,506.97
2018-07-23T16:54:02.002Z,502.60
2018-07-23T16:59:43.921Z,503.42
2018-07-23T17:05:08.560Z,11.60
2018-07-23T17:27:43.464Z,12.78
2018-07-23T17:30:29.648Z,10.50
2018-07-23T17:35:49.667Z,9.78
2018-07-23T17:38:18.376Z,10.20
2018-07-23T17:40:48.046Z,10.48
2018-07-23T17:43:16.719Z,9.03
2018-07-23T17:45:45.444Z,9.98
2018-07-23T17:48:15.392Z,9.03
2018-07-23T17:50:54.752Z,377.82
2018-07-23T17:53:23.492Z,355.10
2018-07-23T17:55:51.798Z,358.02
2018-07-23T17:58:20.541Z,465.20
2018-07-23T18:00:49.935Z,9.88
2018-07-23T18:03:20.411Z,12.13
2018-07-23T18:05:49.437Z,10.63
2018-07-23T18:08:19.255Z,412.70
2018-07-23T18:10:48.876Z,424.30
2018-07-23T18:19:12.944Z,19.37
2018-07-23T18:27:31.522Z,485.05
2018-07-23T18:30:11.155Z,507.55
2018-07-23T18:33:01.437Z,517.48
2018-07-23T18:35:50.569Z,528.55
2018-07-23T18:38:19.279Z,599.35
2018-07-23T18:40:48.020Z,606.55
2018-07-23T18:43:17.008Z,616.88
2018-07-23T18:45:46.841Z,635.05
2018-07-23T18:49:29.558Z,623.00
2018-07-23T18:51:58.337Z,617.80
2018-07-23T18:54:29.700Z,621.15
2018-07-23T18:57:00.673Z,633.48
2018-07-23T18:59:29.385Z,16.90
2018-07-23T19:01:58.690Z,20.65
2018-07-23T19:04:27.367Z,18.60
2018-07-23T19:06:56.062Z,19.27
2018-07-23T19:09:26.618Z,19.98
2018-07-23T19:11:56.138Z,17.63
2018-07-23T19:14:25.923Z,16.10
2018-07-23T19:16:56.051Z,18.90
2018-07-23T19:19:25.432Z,17.00
2018-07-23T19:21:54.315Z,18.23
2018-07-23T19:24:23.347Z,18.80
2018-07-23T19:26:52.440Z,16.17
2018-07-23T19:29:22.830Z,17.23
2018-07-23T19:31:56.152Z,16.73
2018-07-23T19:34:25.247Z,16.10
2018-07-23T19:36:53.949Z,15.48
2018-07-23T19:39:22.957Z,16.62
2018-07-23T19:41:51.680Z,14.73
2018-07-23T19:44:27.946Z,542.00
2018-07-23T19:46:57.646Z,635.42
2018-07-23T19:49:27.708Z,663.20
2018-07-23T19:51:56.403Z,682.08
2018-07-23T19:54:25.097Z,693.92
2018-07-23T19:56:53.777Z,719.83
2018-07-23T19:59:22.647Z,741.75
2018-07-23T20:01:53.333Z,709.13
2018-07-23T20:04:22.134Z,716.27
2018-07-23T20:06:51.786Z,708.35
2018-07-23T20:09:20.424Z,742.55
2018-07-23T20:11:49.771Z,760.70
2018-07-23T20:14:18.507Z,740.00
2018-07-23T20:16:46.821Z,765.00
2018-07-23T20:19:15.504Z,798.02
2018-07-23T20:21:44.263Z,772.85
2018-07-23T20:24:13.088Z,814.90
2018-07-23T20:26:41.750Z,823.83
2018-07-23T20:29:11.581Z,830.55
2018-07-23T20:31:39.972Z,844.88
2018-07-23T20:34:08.684Z,893.55
2018-07-23T20:36:37.386Z,842.95
2018-07-23T20:39:07.597Z,763.12
2018-07-23T20:41:36.271Z,748.30
2018-07-23T20:44:05.097Z,794.13
2018-07-23T20:46:33.793Z,746.45
2018-07-23T20:49:02.875Z,694.25
2018-07-23T20:51:31.666Z,755.05
2018-07-23T20:54:00.222Z,713.10
2018-07-23T20:56:28.910Z,709.63
2018-07-23T20:58:57.944Z,726.65
2018-07-23T21:01:26.630Z,728.05
2018-07-23T21:03:55.339Z,749.20
2018-07-23T21:06:24.026Z,776.27
2018-07-23T21:08:52.355Z,771.60
2018-07-23T21:11:21.179Z,793.33
2018-07-23T21:13:50.019Z,793.45
2018-07-23T21:16:18.675Z,798.95
2018-07-23T21:18:47.396Z,769.57
2018-07-23T21:21:16.101Z,764.65
2018-07-23T21:23:44.706Z,772.45
2018-07-23T21:26:15.010Z,786.57
2018-07-23T21:28:43.826Z,775.77
2018-07-23T21:31:12.749Z,756.30
2018-07-23T21:33:41.920Z,690.80
2018-07-23T21:36:12.672Z,590.10
2018-07-23T21:38:41.327Z,515.70
2018-07-23T21:41:09.990Z,482.90
2018-07-23T21:43:38.691Z,476.83
2018-07-23T21:46:07.339Z,593.83
2018-07-23T21:48:36.233Z,519.13
2018-07-23T21:51:04.948Z,564.48
2018-07-23T21:53:33.580Z,560.35
2018-07-23T21:56:02.266Z,591.55
2018-07-23T21:58:31.185Z,604.55
2018-07-23T22:01:01.001Z,611.83
2018-07-23T22:03:29.686Z,640.95
2018-07-23T22:05:58.408Z,617.20
2018-07-23T22:08:26.704Z,576.10
2018-07-23T22:10:55.370Z,590.40
2018-07-23T22:13:24.230Z,578.43
2018-07-23T22:15:52.963Z,570.33
2018-07-23T22:18:22.327Z,578.20
2018-07-23T22:20:52.221Z,631.30
2018-07-23T22:23:21.651Z,643.85
2018-07-23T22:25:50.309Z,665.12
2018-07-23T22:28:19.022Z,674.83
2018-07-23T22:30:48.824Z,701.95
2018-07-23T22:33:17.487Z,672.48
2018-07-23T22:35:46.136Z,703.63
2018-07-23T22:38:14.854Z,651.45
2018-07-23T22:40:43.477Z,637.38
2018-07-23T22:43:12.360Z,668.77
2018-07-23T22:45:41.169Z,657.88
2018-07-23T22:48:09.886Z,644.05
2018-07-23T22:50:39.986Z,615.60
2018-07-23T22:53:08.630Z,644.58
2018-07-23T22:55:37.254Z,622.90
2018-07-23T22:58:06.784Z,604.62
2018-07-23T23:00:35.516Z,618.40
2018-07-23T23:03:04.311Z,622.95
2018-07-23T23:05:33.313Z,18.05
2018-07-23T23:08:01.997Z,20.85
2018-07-23T23:10:30.650Z,50.48
2018-07-23T23:12:59.359Z,493.35
2018-07-23T23:15:28.048Z,611.88
2018-07-23T23:17:57.712Z,647.15
2018-07-23T23:20:26.477Z,668.73
2018-07-23T23:22:56.170Z,693.13
2018-07-23T23:25:24.880Z,687.77
2018-07-23T23:27:53.606Z,684.20
2018-07-23T23:30:23.367Z,709.57
2018-07-23T23:32:52.067Z,708.77
2018-07-23T23:35:20.807Z,723.67
2018-07-23T23:37:49.444Z,731.40
2018-07-23T23:40:20.340Z,759.50
2018-07-23T23:42:49.026Z,570.57
2018-07-23T23:45:17.402Z,737.88
2018-07-23T23:47:47.153Z,760.83
2018-07-23T23:50:15.831Z,716.42
2018-07-23T23:52:44.487Z,752.05
2018-07-23T23:55:14.104Z,725.53
2018-07-23T23:57:42.850Z,703.50
